sensor_id;sensor_type;location;lat;lon;timestamp;P1;durP1;ratioP1;P2;durP2;ratioP2
5199;SDS011;2619;47.868;11.892;2023-03-23T00:01:23;5.60;;;3.27;;
5199;SDS011;2619;47.868;11.892;2023-03-23T00:03:51;5.97;;;3.40;;
5199;SDS011;2619;47.868;11.892;2023-03-23T00:06:21;4.70;;;2.83;;
5199;SDS011;2619;47.868;11.892;2023-03-23T00:08:48;4.53;;;2.97;;
5199;SDS011;2619;47.868;11.892;2023-03-23T00:11:19;6.20;;;3.30;;
5199;SDS011;2619;47.868;11.892;2023-03-23T00:13:46;5.40;;;3.27;;
5199;SDS011;2619;47.868;11.892;2023-03-23T00:16:16;5.20;;;3.60;;
5199;SDS011;2619;47.868;11.892;2023-03-23T00:18:44;7.90;;;4.07;;
5199;SDS011;2619;47.868;11.892;2023-03-23T00:21:10;5.93;;;3.07;;
5199;SDS011;2619;47.868;11.892;2023-03-23T00:23:36;5.60;;;3.30;;
5199;SDS011;2619;47.868;11.892;2023-03-23T00:26:03;5.10;;;3.10;;
5199;SDS011;2619;47.868;11.892;2023-03-23T00:28:29;4.83;;;3.50;;
5199;SDS011;2619;47.868;11.892;2023-03-23T00:30:58;4.87;;;3.43;;
5199;SDS011;2619;47.868;11.892;2023-03-23T00:33:29;5.87;;;3.30;;
5199;SDS011;2619;47.868;11.892;2023-03-23T00:35:58;4.23;;;3.30;;
5199;SDS011;2619;47.868;11.892;2023-03-23T00:38:24;5.33;;;3.60;;
5199;SDS011;2619;47.868;11.892;2023-03-23T00:40:50;4.77;;;2.67;;
5199;SDS011;2619;47.868;11.892;2023-03-23T00:43:16;4.53;;;3.37;;
5199;SDS011;2619;47.868;11.892;2023-03-23T00:45:43;5.43;;;3.27;;
5199;SDS011;2619;47.868;11.892;2023-03-23T00:48:14;5.43;;;3.30;;
5199;SDS011;2619;47.868;11.892;2023-03-23T00:50:40;5.93;;;3.47;;
5199;SDS011;2619;47.868;11.892;2023-03-23T00:53:06;5.40;;;3.63;;
5199;SDS011;2619;47.868;11.892;2023-03-23T00:55:32;5.50;;;3.00;;
5199;SDS011;2619;47.868;11.892;2023-03-23T00:57:58;4.90;;;3.17;;
5199;SDS011;2619;47.868;11.892;2023-03-23T01:00:24;4.53;;;2.87;;
5199;SDS011;2619;47.868;11.892;2023-03-23T01:02:52;7.93;;;3.17;;
5199;SDS011;2619;47.868;11.892;2023-03-23T01:05:18;5.70;;;3.70;;
5199;SDS011;2619;47.868;11.892;2023-03-23T01:07:44;5.07;;;3.57;;
5199;SDS011;2619;47.868;11.892;2023-03-23T01:10:11;3.90;;;2.80;;
5199;SDS011;2619;47.868;11.892;2023-03-23T01:12:40;4.07;;;3.00;;
5199;SDS011;2619;47.868;11.892;2023-03-23T01:15:06;4.50;;;3.10;;
5199;SDS011;2619;47.868;11.892;2023-03-23T01:17:32;4.33;;;2.80;;
5199;SDS011;2619;47.868;11.892;2023-03-23T01:19:58;3.73;;;2.67;;
5199;SDS011;2619;47.868;11.892;2023-03-23T01:22:23;4.50;;;3.10;;
5199;SDS011;2619;47.868;11.892;2023-03-23T01:24:49;5.40;;;3.20;;
5199;SDS011;2619;47.868;11.892;2023-03-23T01:27:14;4.73;;;2.60;;
5199;SDS011;2619;47.868;11.892;2023-03-23T01:29:40;4.87;;;2.90;;
5199;SDS011;2619;47.868;11.892;2023-03-23T01:32:06;4.50;;;2.83;;
5199;SDS011;2619;47.868;11.892;2023-03-23T01:34:31;5.83;;;2.90;;
5199;SDS011;2619;47.868;11.892;2023-03-23T01:36:57;4.93;;;2.83;;
5199;SDS011;2619;47.868;11.892;2023-03-23T01:39:22;6.53;;;2.63;;
5199;SDS011;2619;47.868;11.892;2023-03-23T01:41:48;3.37;;;2.30;;
5199;SDS011;2619;47.868;11.892;2023-03-23T01:46:42;4.97;;;3.00;;
5199;SDS011;2619;47.868;11.892;2023-03-23T01:49:16;5.17;;;2.50;;
5199;SDS011;2619;47.868;11.892;2023-03-23T01:51:48;4.30;;;2.60;;
5199;SDS011;2619;47.868;11.892;2023-03-23T01:54:18;4.77;;;2.63;;
5199;SDS011;2619;47.868;11.892;2023-03-23T01:56:50;4.07;;;2.57;;
5199;SDS011;2619;47.868;11.892;2023-03-23T01:59:38;8.30;;;2.63;;
5199;SDS011;2619;47.868;11.892;2023-03-23T02:02:07;4.23;;;2.97;;
5199;SDS011;2619;47.868;11.892;2023-03-23T02:04:35;5.13;;;2.80;;
5199;SDS011;2619;47.868;11.892;2023-03-23T02:07:02;4.23;;;2.60;;
5199;SDS011;2619;47.868;11.892;2023-03-23T02:09:28;6.70;;;2.90;;
5199;SDS011;2619;47.868;11.892;2023-03-23T02:11:55;4.50;;;3.07;;
5199;SDS011;2619;47.868;11.892;2023-03-23T02:14:21;4.43;;;2.27;;
5199;SDS011;2619;47.868;11.892;2023-03-23T02:22:33;5.50;;;2.27;;
5199;SDS011;2619;47.868;11.892;2023-03-23T02:36:14;5.30;;;2.60;;
5199;SDS011;2619;47.868;11.892;2023-03-23T02:41:21;4.33;;;2.20;;
5199;SDS011;2619;47.868;11.892;2023-03-23T02:43:49;4.23;;;3.00;;
5199;SDS011;2619;47.868;11.892;2023-03-23T02:46:16;4.17;;;2.50;;
5199;SDS011;2619;47.868;11.892;2023-03-23T02:48:44;4.93;;;2.13;;
5199;SDS011;2619;47.868;11.892;2023-03-23T02:51:13;4.90;;;2.50;;
5199;SDS011;2619;47.868;11.892;2023-03-23T02:53:41;2.90;;;2.07;;
5199;SDS011;2619;47.868;11.892;2023-03-23T02:56:08;5.73;;;2.27;;
5199;SDS011;2619;47.868;11.892;2023-03-23T02:58:36;3.03;;;2.33;;
5199;SDS011;2619;47.868;11.892;2023-03-23T03:04:03;4.63;;;2.00;;
5199;SDS011;2619;47.868;11.892;2023-03-23T03:06:43;4.20;;;2.27;;
5199;SDS011;2619;47.868;11.892;2023-03-23T03:09:42;3.80;;;2.30;;
5199;SDS011;2619;47.868;11.892;2023-03-23T03:17:51;4.20;;;2.13;;
5199;SDS011;2619;47.868;11.892;2023-03-23T03:20:21;4.93;;;2.60;;
5199;SDS011;2619;47.868;11.892;2023-03-23T03:22:50;4.17;;;2.73;;
5199;SDS011;2619;47.868;11.892;2023-03-23T03:25:17;4.50;;;2.03;;
5199;SDS011;2619;47.868;11.892;2023-03-23T03:27:45;3.40;;;2.23;;
5199;SDS011;2619;47.868;11.892;2023-03-23T03:30:14;4.40;;;2.20;;
5199;SDS011;2619;47.868;11.892;2023-03-23T03:32:45;4.30;;;2.33;;
5199;SDS011;2619;47.868;11.892;2023-03-23T03:35:18;3.13;;;2.10;;
5199;SDS011;2619;47.868;11.892;2023-03-23T03:37:46;3.80;;;2.20;;
5199;SDS011;2619;47.868;11.892;2023-03-23T03:40:14;4.17;;;2.40;;
5199;SDS011;2619;47.868;11.892;2023-03-23T03:42:41;3.73;;;2.37;;
5199;SDS011;2619;47.868;11.892;2023-03-23T03:45:09;3.47;;;2.10;;
5199;SDS011;2619;47.868;11.892;2023-03-23T03:47:38;5.00;;;2.30;;
5199;SDS011;2619;47.868;11.892;2023-03-23T03:50:03;5.43;;;2.43;;
5199;SDS011;2619;47.868;11.892;2023-03-23T03:52:30;4.50;;;2.07;;
5199;SDS011;2619;47.868;11.892;2023-03-23T03:54:56;4.80;;;2.50;;
5199;SDS011;2619;47.868;11.892;2023-03-23T03:57:22;3.30;;;2.43;;
5199;SDS011;2619;47.868;11.892;2023-03-23T03:59:49;3.80;;;2.30;;
5199;SDS011;2619;47.868;11.892;2023-03-23T04:02:15;4.50;;;2.60;;
5199;SDS011;2619;47.868;11.892;2023-03-23T04:04:45;4.23;;;2.27;;
5199;SDS011;2619;47.868;11.892;2023-03-23T04:07:11;5.63;;;2.57;;
5199;SDS011;2619;47.868;11.892;2023-03-23T04:09:39;4.87;;;2.63;;
5199;SDS011;2619;47.868;11.892;2023-03-23T04:12:05;6.50;;;2.80;;
5199;SDS011;2619;47.868;11.892;2023-03-23T04:14:31;6.00;;;3.77;;
5199;SDS011;2619;47.868;11.892;2023-03-23T04:16:57;6.03;;;3.10;;
5199;SDS011;2619;47.868;11.892;2023-03-23T04:19:23;4.70;;;2.53;;
5199;SDS011;2619;47.868;11.892;2023-03-23T04:21:50;5.30;;;3.13;;
5199;SDS011;2619;47.868;11.892;2023-03-23T04:24:16;5.27;;;3.40;;
5199;SDS011;2619;47.868;11.892;2023-03-23T04:26:46;4.20;;;2.97;;
5199;SDS011;2619;47.868;11.892;2023-03-23T04:29:12;7.03;;;3.03;;
5199;SDS011;2619;47.868;11.892;2023-03-23T04:31:38;5.40;;;2.77;;
5199;SDS011;2619;47.868;11.892;2023-03-23T04:34:05;3.63;;;2.40;;
5199;SDS011;2619;47.868;11.892;2023-03-23T04:36:31;3.60;;;2.57;;
5199;SDS011;2619;47.868;11.892;2023-03-23T04:38:58;4.70;;;2.50;;
5199;SDS011;2619;47.868;11.892;2023-03-23T04:41:25;2.87;;;1.93;;
5199;SDS011;2619;47.868;11.892;2023-03-23T04:43:51;4.30;;;2.53;;
5199;SDS011;2619;47.868;11.892;2023-03-23T04:46:18;4.70;;;2.97;;
5199;SDS011;2619;47.868;11.892;2023-03-23T04:48:44;3.20;;;2.40;;
5199;SDS011;2619;47.868;11.892;2023-03-23T04:51:10;7.50;;;2.67;;
5199;SDS011;2619;47.868;11.892;2023-03-23T04:53:37;5.13;;;2.40;;
5199;SDS011;2619;47.868;11.892;2023-03-23T04:56:03;7.27;;;2.63;;
5199;SDS011;2619;47.868;11.892;2023-03-23T04:58:29;4.20;;;2.23;;
5199;SDS011;2619;47.868;11.892;2023-03-23T05:00:58;4.00;;;2.67;;
5199;SDS011;2619;47.868;11.892;2023-03-23T05:03:24;4.50;;;2.53;;
5199;SDS011;2619;47.868;11.892;2023-03-23T05:05:51;4.23;;;2.47;;
5199;SDS011;2619;47.868;11.892;2023-03-23T05:08:22;4.40;;;2.57;;
5199;SDS011;2619;47.868;11.892;2023-03-23T05:10:53;5.30;;;2.20;;
5199;SDS011;2619;47.868;11.892;2023-03-23T05:13:20;3.70;;;2.40;;
5199;SDS011;2619;47.868;11.892;2023-03-23T05:15:46;5.10;;;3.33;;
5199;SDS011;2619;47.868;11.892;2023-03-23T05:18:12;6.90;;;3.17;;
5199;SDS011;2619;47.868;11.892;2023-03-23T05:20:38;8.20;;;3.57;;
5199;SDS011;2619;47.868;11.892;2023-03-23T05:23:04;5.50;;;2.60;;
5199;SDS011;2619;47.868;11.892;2023-03-23T05:25:30;4.00;;;2.60;;
5199;SDS011;2619;47.868;11.892;2023-03-23T05:27:57;5.87;;;3.00;;
5199;SDS011;2619;47.868;11.892;2023-03-23T05:30:24;5.00;;;2.70;;
5199;SDS011;2619;47.868;11.892;2023-03-23T05:32:49;4.60;;;2.40;;
5199;SDS011;2619;47.868;11.892;2023-03-23T05:35:16;4.13;;;2.60;;
5199;SDS011;2619;47.868;11.892;2023-03-23T05:37:42;4.37;;;2.97;;
5199;SDS011;2619;47.868;11.892;2023-03-23T05:40:08;3.90;;;3.00;;
5199;SDS011;2619;47.868;11.892;2023-03-23T05:42:36;4.00;;;2.60;;
5199;SDS011;2619;47.868;11.892;2023-03-23T05:45:03;5.70;;;2.90;;
5199;SDS011;2619;47.868;11.892;2023-03-23T05:47:29;5.50;;;2.90;;
5199;SDS011;2619;47.868;11.892;2023-03-23T05:49:56;5.07;;;3.07;;
5199;SDS011;2619;47.868;11.892;2023-03-23T05:52:22;3.60;;;2.47;;
5199;SDS011;2619;47.868;11.892;2023-03-23T05:54:49;3.83;;;2.23;;
5199;SDS011;2619;47.868;11.892;2023-03-23T05:57:15;5.47;;;2.90;;
5199;SDS011;2619;47.868;11.892;2023-03-23T05:59:41;8.23;;;6.30;;
5199;SDS011;2619;47.868;11.892;2023-03-23T06:02:07;6.27;;;4.20;;
5199;SDS011;2619;47.868;11.892;2023-03-23T06:04:32;4.07;;;3.03;;
5199;SDS011;2619;47.868;11.892;2023-03-23T06:06:58;5.53;;;3.50;;
5199;SDS011;2619;47.868;11.892;2023-03-23T06:09:27;9.30;;;4.80;;
5199;SDS011;2619;47.868;11.892;2023-03-23T06:11:53;8.93;;;4.77;;
5199;SDS011;2619;47.868;11.892;2023-03-23T06:14:19;8.07;;;4.77;;
5199;SDS011;2619;47.868;11.892;2023-03-23T06:16:44;8.03;;;4.27;;
5199;SDS011;2619;47.868;11.892;2023-03-23T06:19:10;6.67;;;4.30;;
5199;SDS011;2619;47.868;11.892;2023-03-23T06:21:36;6.93;;;4.23;;
5199;SDS011;2619;47.868;11.892;2023-03-23T06:24:02;4.40;;;3.13;;
5199;SDS011;2619;47.868;11.892;2023-03-23T06:26:35;4.03;;;2.87;;
5199;SDS011;2619;47.868;11.892;2023-03-23T06:29:03;3.57;;;2.50;;
5199;SDS011;2619;47.868;11.892;2023-03-23T06:31:36;5.00;;;2.93;;
5199;SDS011;2619;47.868;11.892;2023-03-23T06:34:07;4.87;;;2.90;;
5199;SDS011;2619;47.868;11.892;2023-03-23T06:36:35;4.70;;;2.27;;
5199;SDS011;2619;47.868;11.892;2023-03-23T06:39:01;3.40;;;1.87;;
5199;SDS011;2619;47.868;11.892;2023-03-23T06:41:29;4.27;;;2.87;;
5199;SDS011;2619;47.868;11.892;2023-03-23T06:43:56;4.83;;;2.43;;
5199;SDS011;2619;47.868;11.892;2023-03-23T06:46:22;3.67;;;2.70;;
5199;SDS011;2619;47.868;11.892;2023-03-23T06:48:48;5.50;;;2.67;;
5199;SDS011;2619;47.868;11.892;2023-03-23T06:51:15;4.43;;;2.33;;
5199;SDS011;2619;47.868;11.892;2023-03-23T06:53:41;5.17;;;2.33;;
5199;SDS011;2619;47.868;11.892;2023-03-23T06:56:07;4.90;;;2.33;;
5199;SDS011;2619;47.868;11.892;2023-03-23T06:58:33;4.30;;;2.73;;
5199;SDS011;2619;47.868;11.892;2023-03-23T07:01:00;5.90;;;2.60;;
5199;SDS011;2619;47.868;11.892;2023-03-23T07:03:25;3.57;;;2.03;;
5199;SDS011;2619;47.868;11.892;2023-03-23T07:05:52;3.10;;;1.90;;
5199;SDS011;2619;47.868;11.892;2023-03-23T07:08:19;3.00;;;2.07;;
5199;SDS011;2619;47.868;11.892;2023-03-23T07:10:45;4.40;;;2.80;;
5199;SDS011;2619;47.868;11.892;2023-03-23T07:13:11;5.60;;;2.90;;
5199;SDS011;2619;47.868;11.892;2023-03-23T07:15:38;4.90;;;3.37;;
5199;SDS011;2619;47.868;11.892;2023-03-23T07:18:04;7.87;;;5.47;;
5199;SDS011;2619;47.868;11.892;2023-03-23T07:20:30;10.70;;;8.80;;
5199;SDS011;2619;47.868;11.892;2023-03-23T07:22:56;8.20;;;6.53;;
5199;SDS011;2619;47.868;11.892;2023-03-23T07:25:21;3.90;;;3.40;;
5199;SDS011;2619;47.868;11.892;2023-03-23T07:27:47;6.20;;;3.07;;
5199;SDS011;2619;47.868;11.892;2023-03-23T07:30:13;15.20;;;4.57;;
5199;SDS011;2619;47.868;11.892;2023-03-23T07:32:39;7.10;;;4.90;;
5199;SDS011;2619;47.868;11.892;2023-03-23T07:35:06;6.67;;;5.00;;
5199;SDS011;2619;47.868;11.892;2023-03-23T07:37:34;7.87;;;4.83;;
5199;SDS011;2619;47.868;11.892;2023-03-23T07:40:00;6.20;;;4.40;;
5199;SDS011;2619;47.868;11.892;2023-03-23T07:42:39;4.93;;;2.80;;
5199;SDS011;2619;47.868;11.892;2023-03-23T07:45:09;3.93;;;2.90;;
5199;SDS011;2619;47.868;11.892;2023-03-23T07:47:36;5.70;;;3.90;;
5199;SDS011;2619;47.868;11.892;2023-03-23T07:50:02;5.60;;;4.00;;
5199;SDS011;2619;47.868;11.892;2023-03-23T07:52:29;4.37;;;3.70;;
5199;SDS011;2619;47.868;11.892;2023-03-23T07:54:55;9.60;;;4.93;;
5199;SDS011;2619;47.868;11.892;2023-03-23T07:57:21;6.37;;;4.70;;
5199;SDS011;2619;47.868;11.892;2023-03-23T07:59:47;5.10;;;2.90;;
5199;SDS011;2619;47.868;11.892;2023-03-23T08:02:13;5.27;;;3.33;;
5199;SDS011;2619;47.868;11.892;2023-03-23T08:04:39;4.63;;;2.83;;
5199;SDS011;2619;47.868;11.892;2023-03-23T08:07:05;6.67;;;3.73;;
5199;SDS011;2619;47.868;11.892;2023-03-23T08:09:30;4.20;;;2.70;;
5199;SDS011;2619;47.868;11.892;2023-03-23T08:11:56;4.77;;;2.83;;
5199;SDS011;2619;47.868;11.892;2023-03-23T08:14:22;3.17;;;2.70;;
5199;SDS011;2619;47.868;11.892;2023-03-23T08:16:53;6.70;;;3.47;;
5199;SDS011;2619;47.868;11.892;2023-03-23T08:19:21;4.80;;;3.30;;
5199;SDS011;2619;47.868;11.892;2023-03-23T08:21:47;9.20;;;3.83;;
5199;SDS011;2619;47.868;11.892;2023-03-23T08:24:13;7.57;;;4.13;;
5199;SDS011;2619;47.868;11.892;2023-03-23T08:26:39;6.17;;;4.13;;
5199;SDS011;2619;47.868;11.892;2023-03-23T08:29:05;7.47;;;4.27;;
5199;SDS011;2619;47.868;11.892;2023-03-23T08:31:31;4.30;;;2.83;;
5199;SDS011;2619;47.868;11.892;2023-03-23T08:33:59;6.27;;;3.30;;
5199;SDS011;2619;47.868;11.892;2023-03-23T08:36:25;8.60;;;3.80;;
5199;SDS011;2619;47.868;11.892;2023-03-23T08:38:52;3.83;;;3.20;;
5199;SDS011;2619;47.868;11.892;2023-03-23T08:41:18;4.77;;;3.13;;
5199;SDS011;2619;47.868;11.892;2023-03-23T08:43:44;5.77;;;3.63;;
5199;SDS011;2619;47.868;11.892;2023-03-23T08:46:11;5.60;;;3.20;;
5199;SDS011;2619;47.868;11.892;2023-03-23T08:48:37;5.60;;;3.20;;
5199;SDS011;2619;47.868;11.892;2023-03-23T08:51:04;4.17;;;3.33;;
5199;SDS011;2619;47.868;11.892;2023-03-23T08:53:31;4.80;;;3.30;;
5199;SDS011;2619;47.868;11.892;2023-03-23T08:56:07;4.53;;;3.73;;
5199;SDS011;2619;47.868;11.892;2023-03-23T08:58:35;4.00;;;3.20;;
5199;SDS011;2619;47.868;11.892;2023-03-23T09:01:02;4.60;;;3.40;;
5199;SDS011;2619;47.868;11.892;2023-03-23T09:03:28;7.40;;;4.00;;
5199;SDS011;2619;47.868;11.892;2023-03-23T09:05:57;8.90;;;4.73;;
5199;SDS011;2619;47.868;11.892;2023-03-23T09:08:28;6.80;;;4.50;;
5199;SDS011;2619;47.868;11.892;2023-03-23T09:10:55;4.93;;;3.70;;
5199;SDS011;2619;47.868;11.892;2023-03-23T09:13:24;5.60;;;3.73;;
5199;SDS011;2619;47.868;11.892;2023-03-23T09:15:50;5.53;;;3.60;;
5199;SDS011;2619;47.868;11.892;2023-03-23T09:18:17;5.07;;;3.60;;
5199;SDS011;2619;47.868;11.892;2023-03-23T09:20:44;5.47;;;3.60;;
5199;SDS011;2619;47.868;11.892;2023-03-23T09:23:10;4.77;;;3.43;;
5199;SDS011;2619;47.868;11.892;2023-03-23T09:25:38;6.80;;;3.90;;
5199;SDS011;2619;47.868;11.892;2023-03-23T09:28:04;10.33;;;4.33;;
5199;SDS011;2619;47.868;11.892;2023-03-23T09:30:30;4.90;;;3.50;;
5199;SDS011;2619;47.868;11.892;2023-03-23T09:32:59;6.10;;;3.43;;
5199;SDS011;2619;47.868;11.892;2023-03-23T09:35:29;6.17;;;4.10;;
5199;SDS011;2619;47.868;11.892;2023-03-23T09:37:56;5.90;;;3.90;;
5199;SDS011;2619;47.868;11.892;2023-03-23T09:40:27;7.73;;;4.07;;
5199;SDS011;2619;47.868;11.892;2023-03-23T09:48:36;4.63;;;3.73;;
5199;SDS011;2619;47.868;11.892;2023-03-23T09:51:49;5.73;;;3.97;;
5199;SDS011;2619;47.868;11.892;2023-03-23T09:53:59;6.17;;;4.13;;
5199;SDS011;2619;47.868;11.892;2023-03-23T09:56:30;5.17;;;4.00;;
5199;SDS011;2619;47.868;11.892;2023-03-23T10:01:31;8.60;;;4.13;;
5199;SDS011;2619;47.868;11.892;2023-03-23T10:04:38;6.80;;;4.10;;
5199;SDS011;2619;47.868;11.892;2023-03-23T10:07:09;6.07;;;4.70;;
5199;SDS011;2619;47.868;11.892;2023-03-23T10:09:35;6.90;;;5.00;;
5199;SDS011;2619;47.868;11.892;2023-03-23T10:15:08;8.67;;;5.00;;
5199;SDS011;2619;47.868;11.892;2023-03-23T10:23:32;6.03;;;4.70;;
5199;SDS011;2619;47.868;11.892;2023-03-23T10:26:05;4.50;;;4.10;;
5199;SDS011;2619;47.868;11.892;2023-03-23T10:31:03;5.23;;;4.10;;
5199;SDS011;2619;47.868;11.892;2023-03-23T10:33:38;4.70;;;3.80;;
5199;SDS011;2619;47.868;11.892;2023-03-23T10:39:12;4.80;;;4.07;;
5199;SDS011;2619;47.868;11.892;2023-03-23T10:41:42;5.50;;;4.40;;
5199;SDS011;2619;47.868;11.892;2023-03-23T10:44:09;6.47;;;4.13;;
5199;SDS011;2619;47.868;11.892;2023-03-23T10:49:14;6.97;;;3.90;;
5199;SDS011;2619;47.868;11.892;2023-03-23T10:52:12;5.37;;;4.57;;
5199;SDS011;2619;47.868;11.892;2023-03-23T10:54:48;8.10;;;4.83;;
5199;SDS011;2619;47.868;11.892;2023-03-23T10:57:28;6.53;;;4.33;;
5199;SDS011;2619;47.868;11.892;2023-03-23T11:08:16;5.33;;;4.10;;
5199;SDS011;2619;47.868;11.892;2023-03-23T11:10:52;6.27;;;4.90;;
5199;SDS011;2619;47.868;11.892;2023-03-23T11:13:20;6.60;;;5.87;;
5199;SDS011;2619;47.868;11.892;2023-03-23T11:15:48;6.83;;;5.40;;
5199;SDS011;2619;47.868;11.892;2023-03-23T11:21:01;9.03;;;6.77;;
5199;SDS011;2619;47.868;11.892;2023-03-23T11:23:48;7.37;;;5.60;;
5199;SDS011;2619;47.868;11.892;2023-03-23T11:31:23;7.87;;;4.90;;
5199;SDS011;2619;47.868;11.892;2023-03-23T11:33:59;6.67;;;5.90;;
5199;SDS011;2619;47.868;11.892;2023-03-23T11:36:30;6.90;;;5.63;;
5199;SDS011;2619;47.868;11.892;2023-03-23T11:38:58;7.60;;;5.93;;
5199;SDS011;2619;47.868;11.892;2023-03-23T11:41:31;5.87;;;5.27;;
5199;SDS011;2619;47.868;11.892;2023-03-23T11:44:03;9.93;;;5.87;;
5199;SDS011;2619;47.868;11.892;2023-03-23T11:46:38;7.70;;;6.17;;
5199;SDS011;2619;47.868;11.892;2023-03-23T11:49:47;7.73;;;6.83;;
5199;SDS011;2619;47.868;11.892;2023-03-23T11:52:21;7.43;;;5.83;;
5199;SDS011;2619;47.868;11.892;2023-03-23T11:55:00;6.70;;;5.90;;
5199;SDS011;2619;47.868;11.892;2023-03-23T11:57:34;6.50;;;5.90;;
5199;SDS011;2619;47.868;11.892;2023-03-23T12:00:00;7.70;;;6.00;;
5199;SDS011;2619;47.868;11.892;2023-03-23T12:02:32;7.30;;;5.53;;
5199;SDS011;2619;47.868;11.892;2023-03-23T12:08:02;6.53;;;5.60;;
5199;SDS011;2619;47.868;11.892;2023-03-23T12:10:55;7.23;;;5.30;;
5199;SDS011;2619;47.868;11.892;2023-03-23T12:19:13;7.23;;;5.10;;
5199;SDS011;2619;47.868;11.892;2023-03-23T12:41:23;6.63;;;5.60;;
5199;SDS011;2619;47.868;11.892;2023-03-23T12:44:05;6.97;;;5.30;;
5199;SDS011;2619;47.868;11.892;2023-03-23T12:46:51;6.80;;;5.53;;
5199;SDS011;2619;47.868;11.892;2023-03-23T12:49:37;5.90;;;4.97;;
5199;SDS011;2619;47.868;11.892;2023-03-23T12:52:23;6.90;;;4.20;;
5199;SDS011;2619;47.868;11.892;2023-03-23T12:55:05;6.90;;;4.67;;
5199;SDS011;2619;47.868;11.892;2023-03-23T12:57:58;5.07;;;3.43;;
5199;SDS011;2619;47.868;11.892;2023-03-23T13:00:33;4.77;;;3.13;;
5199;SDS011;2619;47.868;11.892;2023-03-23T13:03:52;5.17;;;2.73;;
5199;SDS011;2619;47.868;11.892;2023-03-23T13:09:02;4.40;;;3.43;;
5199;SDS011;2619;47.868;11.892;2023-03-23T13:11:35;5.97;;;4.10;;
5199;SDS011;2619;47.868;11.892;2023-03-23T13:24:37;5.00;;;3.50;;
5199;SDS011;2619;47.868;11.892;2023-03-23T13:27:08;4.17;;;3.30;;
5199;SDS011;2619;47.868;11.892;2023-03-23T13:29:36;4.47;;;3.00;;
5199;SDS011;2619;47.868;11.892;2023-03-23T13:32:15;4.50;;;2.80;;
5199;SDS011;2619;47.868;11.892;2023-03-23T13:34:42;4.47;;;3.13;;
5199;SDS011;2619;47.868;11.892;2023-03-23T13:37:11;4.30;;;2.70;;
5199;SDS011;2619;47.868;11.892;2023-03-23T13:39:51;5.33;;;2.80;;
5199;SDS011;2619;47.868;11.892;2023-03-23T13:42:30;4.03;;;3.13;;
5199;SDS011;2619;47.868;11.892;2023-03-23T13:48:03;3.83;;;2.37;;
5199;SDS011;2619;47.868;11.892;2023-03-23T13:50:31;4.50;;;3.00;;
5199;SDS011;2619;47.868;11.892;2023-03-23T13:53:20;4.10;;;2.73;;
5199;SDS011;2619;47.868;11.892;2023-03-23T13:55:51;4.87;;;3.30;;
5199;SDS011;2619;47.868;11.892;2023-03-23T13:58:29;5.40;;;3.73;;
5199;SDS011;2619;47.868;11.892;2023-03-23T14:01:09;3.70;;;2.90;;
5199;SDS011;2619;47.868;11.892;2023-03-23T14:03:45;3.10;;;2.20;;
5199;SDS011;2619;47.868;11.892;2023-03-23T14:06:18;4.47;;;2.60;;
5199;SDS011;2619;47.868;11.892;2023-03-23T14:08:51;4.30;;;2.93;;
5199;SDS011;2619;47.868;11.892;2023-03-23T14:11:20;4.50;;;2.60;;
5199;SDS011;2619;47.868;11.892;2023-03-23T14:16:40;4.47;;;3.00;;
5199;SDS011;2619;47.868;11.892;2023-03-23T14:21:56;4.60;;;2.90;;
5199;SDS011;2619;47.868;11.892;2023-03-23T14:24:28;4.47;;;3.00;;
5199;SDS011;2619;47.868;11.892;2023-03-23T14:27:10;4.67;;;2.63;;
5199;SDS011;2619;47.868;11.892;2023-03-23T14:29:57;4.37;;;2.73;;
5199;SDS011;2619;47.868;11.892;2023-03-23T14:32:24;4.93;;;2.80;;
5199;SDS011;2619;47.868;11.892;2023-03-23T14:34:52;4.17;;;1.97;;
5199;SDS011;2619;47.868;11.892;2023-03-23T14:37:18;3.47;;;2.10;;
5199;SDS011;2619;47.868;11.892;2023-03-23T14:39:53;3.00;;;1.83;;
5199;SDS011;2619;47.868;11.892;2023-03-23T14:42:27;3.40;;;2.20;;
5199;SDS011;2619;47.868;11.892;2023-03-23T14:44:55;3.20;;;2.00;;
5199;SDS011;2619;47.868;11.892;2023-03-23T14:47:26;3.60;;;2.50;;
5199;SDS011;2619;47.868;11.892;2023-03-23T14:49:56;2.90;;;1.80;;
5199;SDS011;2619;47.868;11.892;2023-03-23T14:52:25;4.03;;;1.87;;
5199;SDS011;2619;47.868;11.892;2023-03-23T14:54:53;3.40;;;2.07;;
5199;SDS011;2619;47.868;11.892;2023-03-23T14:59:51;3.07;;;1.50;;
5199;SDS011;2619;47.868;11.892;2023-03-23T15:02:20;2.90;;;2.40;;
5199;SDS011;2619;47.868;11.892;2023-03-23T15:05:02;3.77;;;2.00;;
5199;SDS011;2619;47.868;11.892;2023-03-23T15:07:36;4.77;;;1.67;;
5199;SDS011;2619;47.868;11.892;2023-03-23T15:10:07;2.67;;;1.80;;
5199;SDS011;2619;47.868;11.892;2023-03-23T15:12:36;3.27;;;2.00;;
5199;SDS011;2619;47.868;11.892;2023-03-23T15:15:03;4.37;;;2.20;;
5199;SDS011;2619;47.868;11.892;2023-03-23T15:17:36;2.50;;;1.50;;
5199;SDS011;2619;47.868;11.892;2023-03-23T15:20:10;2.87;;;1.40;;
5199;SDS011;2619;47.868;11.892;2023-03-23T15:22:56;4.00;;;1.80;;
5199;SDS011;2619;47.868;11.892;2023-03-23T15:25:30;3.60;;;2.00;;
5199;SDS011;2619;47.868;11.892;2023-03-23T15:28:06;3.00;;;1.90;;
5199;SDS011;2619;47.868;11.892;2023-03-23T15:30:45;3.40;;;1.63;;
5199;SDS011;2619;47.868;11.892;2023-03-23T15:33:23;3.17;;;1.90;;
5199;SDS011;2619;47.868;11.892;2023-03-23T15:35:53;2.80;;;1.70;;
5199;SDS011;2619;47.868;11.892;2023-03-23T15:38:38;3.83;;;1.67;;
5199;SDS011;2619;47.868;11.892;2023-03-23T15:41:19;5.80;;;2.10;;
5199;SDS011;2619;47.868;11.892;2023-03-23T15:43:56;3.50;;;1.50;;
5199;SDS011;2619;47.868;11.892;2023-03-23T15:46:24;2.90;;;1.50;;
5199;SDS011;2619;47.868;11.892;2023-03-23T15:51:23;4.20;;;1.70;;
5199;SDS011;2619;47.868;11.892;2023-03-23T15:53:51;3.63;;;1.70;;
5199;SDS011;2619;47.868;11.892;2023-03-23T15:56:18;2.50;;;1.70;;
5199;SDS011;2619;47.868;11.892;2023-03-23T15:58:44;4.07;;;2.07;;
5199;SDS011;2619;47.868;11.892;2023-03-23T16:01:11;3.70;;;1.67;;
5199;SDS011;2619;47.868;11.892;2023-03-23T16:03:51;3.50;;;1.43;;
5199;SDS011;2619;47.868;11.892;2023-03-23T16:06:22;3.80;;;1.60;;
5199;SDS011;2619;47.868;11.892;2023-03-23T16:08:50;3.40;;;1.70;;
5199;SDS011;2619;47.868;11.892;2023-03-23T16:11:17;5.80;;;2.10;;
5199;SDS011;2619;47.868;11.892;2023-03-23T16:13:43;4.37;;;1.77;;
5199;SDS011;2619;47.868;11.892;2023-03-23T16:16:13;2.83;;;1.77;;
5199;SDS011;2619;47.868;11.892;2023-03-23T16:18:47;2.60;;;1.40;;
5199;SDS011;2619;47.868;11.892;2023-03-23T16:21:13;4.20;;;2.13;;
5199;SDS011;2619;47.868;11.892;2023-03-23T16:23:39;10.57;;;3.20;;
5199;SDS011;2619;47.868;11.892;2023-03-23T16:26:08;3.80;;;1.87;;
5199;SDS011;2619;47.868;11.892;2023-03-23T16:28:34;2.90;;;2.00;;
5199;SDS011;2619;47.868;11.892;2023-03-23T16:31:00;2.40;;;1.50;;
5199;SDS011;2619;47.868;11.892;2023-03-23T16:33:25;3.63;;;1.80;;
5199;SDS011;2619;47.868;11.892;2023-03-23T16:35:51;5.27;;;1.80;;
5199;SDS011;2619;47.868;11.892;2023-03-23T16:38:16;5.23;;;1.40;;
5199;SDS011;2619;47.868;11.892;2023-03-23T16:40:43;2.70;;;1.30;;
5199;SDS011;2619;47.868;11.892;2023-03-23T16:43:09;4.10;;;1.77;;
5199;SDS011;2619;47.868;11.892;2023-03-23T16:45:36;1.83;;;1.10;;
5199;SDS011;2619;47.868;11.892;2023-03-23T16:48:03;4.00;;;1.70;;
5199;SDS011;2619;47.868;11.892;2023-03-23T16:50:29;3.13;;;1.77;;
5199;SDS011;2619;47.868;11.892;2023-03-23T16:52:55;3.50;;;2.27;;
5199;SDS011;2619;47.868;11.892;2023-03-23T16:55:20;6.63;;;2.83;;
5199;SDS011;2619;47.868;11.892;2023-03-23T16:57:46;9.07;;;5.67;;
5199;SDS011;2619;47.868;11.892;2023-03-23T17:00:13;9.07;;;5.60;;
5199;SDS011;2619;47.868;11.892;2023-03-23T17:02:43;15.37;;;6.47;;
5199;SDS011;2619;47.868;11.892;2023-03-23T17:05:10;5.17;;;3.27;;
5199;SDS011;2619;47.868;11.892;2023-03-23T17:07:39;6.23;;;3.87;;
5199;SDS011;2619;47.868;11.892;2023-03-23T17:10:06;3.20;;;2.00;;
5199;SDS011;2619;47.868;11.892;2023-03-23T17:12:33;3.90;;;1.80;;
5199;SDS011;2619;47.868;11.892;2023-03-23T17:14:59;4.27;;;2.27;;
5199;SDS011;2619;47.868;11.892;2023-03-23T17:17:25;3.07;;;1.90;;
5199;SDS011;2619;47.868;11.892;2023-03-23T17:19:51;3.63;;;2.00;;
5199;SDS011;2619;47.868;11.892;2023-03-23T17:22:17;3.77;;;2.50;;